sensor_id;sensor_type;location;lat;lon;timestamp;P1;durP1;ratioP1;P2;durP2;ratioP2
40601;SDS011;26310;50.278;19.032;2023-02-12T00:02:56;17.37;;;8.93;;
40601;SDS011;26310;50.278;19.032;2023-02-12T00:07:59;13.07;;;8.47;;
40601;SDS011;26310;50.278;19.032;2023-02-12T00:13:02;18.40;;;7.87;;
40601;SDS011;26310;50.278;19.032;2023-02-12T00:18:05;12.10;;;6.57;;
40601;SDS011;26310;50.278;19.032;2023-02-12T00:23:09;11.00;;;6.27;;
40601;SDS011;26310;50.278;19.032;2023-02-12T00:28:11;11.53;;;7.40;;
40601;SDS011;26310;50.278;19.032;2023-02-12T05:34:16;19.87;;;6.43;;
40601;SDS011;26310;50.278;19.032;2023-02-12T05:39:19;10.17;;;6.37;;
40601;SDS011;26310;50.278;19.032;2023-02-12T05:44:22;13.10;;;5.97;;
40601;SDS011;26310;50.278;19.032;2023-02-12T05:49:25;10.87;;;6.10;;
40601;SDS011;26310;50.278;19.032;2023-02-12T05:54:28;12.50;;;7.33;;
40601;SDS011;26310;50.278;19.032;2023-02-12T05:59:31;16.93;;;8.43;;
40601;SDS011;26310;50.278;19.032;2023-02-12T06:04:34;14.47;;;7.87;;
40601;SDS011;26310;50.278;19.032;2023-02-12T06:09:37;11.80;;;7.73;;
40601;SDS011;26310;50.278;19.032;2023-02-12T06:14:40;18.90;;;7.37;;
40601;SDS011;26310;50.278;19.032;2023-02-12T06:19:43;7.93;;;6.50;;
40601;SDS011;26310;50.278;19.032;2023-02-12T06:24:46;8.87;;;4.93;;
40601;SDS011;26310;50.278;19.032;2023-02-12T06:29:49;9.13;;;5.13;;
40601;SDS011;26310;50.278;19.032;2023-02-12T06:34:51;17.40;;;6.37;;
40601;SDS011;26310;50.278;19.032;2023-02-12T06:39:54;9.57;;;5.40;;
40601;SDS011;26310;50.278;19.032;2023-02-12T06:44:57;8.13;;;5.07;;
40601;SDS011;26310;50.278;19.032;2023-02-12T06:50:00;7.03;;;4.73;;
40601;SDS011;26310;50.278;19.032;2023-02-12T06:55:03;8.77;;;4.73;;
40601;SDS011;26310;50.278;19.032;2023-02-12T07:00:06;6.87;;;4.10;;
40601;SDS011;26310;50.278;19.032;2023-02-12T07:05:10;5.37;;;3.17;;
40601;SDS011;26310;50.278;19.032;2023-02-12T07:10:13;6.23;;;3.87;;
40601;SDS011;26310;50.278;19.032;2023-02-12T07:15:15;11.67;;;3.87;;
40601;SDS011;26310;50.278;19.032;2023-02-12T07:20:18;3.77;;;2.47;;
40601;SDS011;26310;50.278;19.032;2023-02-12T07:25:27;3.57;;;3.10;;
40601;SDS011;26310;50.278;19.032;2023-02-12T07:30:36;3.77;;;2.63;;
40601;SDS011;26310;50.278;19.032;2023-02-12T07:35:43;3.77;;;2.67;;
40601;SDS011;26310;50.278;19.032;2023-02-12T07:40:46;5.50;;;3.37;;
40601;SDS011;26310;50.278;19.032;2023-02-12T07:45:49;3.97;;;2.90;;
40601;SDS011;26310;50.278;19.032;2023-02-12T07:50:52;9.73;;;3.77;;
40601;SDS011;26310;50.278;19.032;2023-02-12T07:55:55;3.67;;;2.93;;
40601;SDS011;26310;50.278;19.032;2023-02-12T08:01:17;7.47;;;3.13;;
40601;SDS011;26310;50.278;19.032;2023-02-12T08:06:29;4.27;;;2.57;;
40601;SDS011;26310;50.278;19.032;2023-02-12T08:11:33;6.27;;;2.40;;
40601;SDS011;26310;50.278;19.032;2023-02-12T08:16:38;2.57;;;2.30;;
40601;SDS011;26310;50.278;19.032;2023-02-12T08:21:42;1.80;;;1.70;;
40601;SDS011;26310;50.278;19.032;2023-02-12T08:26:45;3.60;;;2.00;;
40601;SDS011;26310;50.278;19.032;2023-02-12T08:31:49;2.53;;;2.33;;
40601;SDS011;26310;50.278;19.032;2023-02-12T08:36:55;4.93;;;3.27;;
40601;SDS011;26310;50.278;19.032;2023-02-12T08:41:59;3.30;;;2.10;;
40601;SDS011;26310;50.278;19.032;2023-02-12T08:47:02;4.23;;;3.20;;
40601;SDS011;26310;50.278;19.032;2023-02-12T08:52:06;2.77;;;2.07;;
40601;SDS011;26310;50.278;19.032;2023-02-12T08:57:09;2.00;;;1.80;;
40601;SDS011;26310;50.278;19.032;2023-02-12T09:02:12;4.00;;;1.83;;
40601;SDS011;26310;50.278;19.032;2023-02-12T09:07:15;4.27;;;2.63;;
40601;SDS011;26310;50.278;19.032;2023-02-12T09:12:18;4.10;;;2.97;;
40601;SDS011;26310;50.278;19.032;2023-02-12T09:17:21;4.23;;;2.40;;
40601;SDS011;26310;50.278;19.032;2023-02-12T09:22:28;2.50;;;2.30;;
40601;SDS011;26310;50.278;19.032;2023-02-12T09:27:31;2.43;;;1.80;;
40601;SDS011;26310;50.278;19.032;2023-02-12T09:32:33;3.23;;;2.27;;
40601;SDS011;26310;50.278;19.032;2023-02-12T09:37:36;3.63;;;2.10;;
40601;SDS011;26310;50.278;19.032;2023-02-12T09:48:14;5.43;;;2.97;;
40601;SDS011;26310;50.278;19.032;2023-02-12T09:53:26;4.10;;;2.43;;
40601;SDS011;26310;50.278;19.032;2023-02-12T09:58:35;5.87;;;2.53;;
40601;SDS011;26310;50.278;19.032;2023-02-12T10:03:45;5.23;;;2.70;;
40601;SDS011;26310;50.278;19.032;2023-02-12T10:29:55;6.10;;;2.87;;
40601;SDS011;26310;50.278;19.032;2023-02-12T10:35:00;4.73;;;3.00;;
40601;SDS011;26310;50.278;19.032;2023-02-12T10:40:16;5.07;;;2.70;;
40601;SDS011;26310;50.278;19.032;2023-02-12T10:45:32;5.20;;;3.07;;
40601;SDS011;26310;50.278;19.032;2023-02-12T11:06:35;5.40;;;3.17;;
40601;SDS011;26310;50.278;19.032;2023-02-12T11:11:38;3.50;;;2.40;;
40601;SDS011;26310;50.278;19.032;2023-02-12T11:16:51;3.00;;;2.70;;
40601;SDS011;26310;50.278;19.032;2023-02-12T11:22:06;3.40;;;3.10;;
40601;SDS011;26310;50.278;19.032;2023-02-12T11:27:25;4.73;;;3.50;;
40601;SDS011;26310;50.278;19.032;2023-02-12T11:32:29;6.70;;;2.97;;
40601;SDS011;26310;50.278;19.032;2023-02-12T11:37:32;5.20;;;2.50;;
40601;SDS011;26310;50.278;19.032;2023-02-12T11:42:37;4.23;;;2.27;;
40601;SDS011;26310;50.278;19.032;2023-02-12T11:47:44;7.07;;;3.20;;
40601;SDS011;26310;50.278;19.032;2023-02-12T11:52:48;3.07;;;2.10;;
40601;SDS011;26310;50.278;19.032;2023-02-12T12:03:17;7.13;;;3.93;;
40601;SDS011;26310;50.278;19.032;2023-02-12T12:08:28;8.87;;;3.70;;
40601;SDS011;26310;50.278;19.032;2023-02-12T12:19:14;5.10;;;2.40;;
40601;SDS011;26310;50.278;19.032;2023-02-12T12:24:47;4.43;;;2.40;;
40601;SDS011;26310;50.278;19.032;2023-02-12T12:30:15;1.93;;;1.73;;
40601;SDS011;26310;50.278;19.032;2023-02-12T12:35:51;4.20;;;2.60;;
40601;SDS011;26310;50.278;19.032;2023-02-12T12:41:06;3.60;;;2.67;;
40601;SDS011;26310;50.278;19.032;2023-02-12T12:46:20;5.73;;;2.37;;
40601;SDS011;26310;50.278;19.032;2023-02-12T12:51:35;4.03;;;2.30;;
40601;SDS011;26310;50.278;19.032;2023-02-12T12:56:48;3.30;;;2.33;;
40601;SDS011;26310;50.278;19.032;2023-02-12T13:23:41;3.97;;;2.97;;
40601;SDS011;26310;50.278;19.032;2023-02-12T13:28:55;3.33;;;2.50;;
40601;SDS011;26310;50.278;19.032;2023-02-12T13:34:03;4.03;;;3.13;;
40601;SDS011;26310;50.278;19.032;2023-02-12T13:44:49;6.07;;;3.77;;
40601;SDS011;26310;50.278;19.032;2023-02-12T13:55:45;6.60;;;3.33;;
40601;SDS011;26310;50.278;19.032;2023-02-12T14:01:12;9.33;;;4.07;;
40601;SDS011;26310;50.278;19.032;2023-02-12T14:06:34;4.33;;;3.93;;
40601;SDS011;26310;50.278;19.032;2023-02-12T14:11:47;8.80;;;3.80;;
40601;SDS011;26310;50.278;19.032;2023-02-12T14:16:52;5.53;;;3.43;;
40601;SDS011;26310;50.278;19.032;2023-02-12T14:21:55;5.03;;;3.43;;
40601;SDS011;26310;50.278;19.032;2023-02-12T14:26:58;4.30;;;2.97;;
40601;SDS011;26310;50.278;19.032;2023-02-12T14:32:01;5.30;;;3.13;;
40601;SDS011;26310;50.278;19.032;2023-02-12T14:37:11;7.27;;;4.63;;
40601;SDS011;26310;50.278;19.032;2023-02-12T14:52:46;3.83;;;2.60;;
40601;SDS011;26310;50.278;19.032;2023-02-12T14:58:03;7.10;;;3.20;;
40601;SDS011;26310;50.278;19.032;2023-02-12T15:08:31;5.83;;;3.07;;
40601;SDS011;26310;50.278;19.032;2023-02-12T15:13:59;4.63;;;3.17;;
40601;SDS011;26310;50.278;19.032;2023-02-12T15:24:33;5.87;;;3.60;;
40601;SDS011;26310;50.278;19.032;2023-02-12T15:29:39;6.63;;;2.87;;
40601;SDS011;26310;50.278;19.032;2023-02-12T15:34:47;8.53;;;3.63;;
40601;SDS011;26310;50.278;19.032;2023-02-12T15:39:53;6.97;;;3.20;;
40601;SDS011;26310;50.278;19.032;2023-02-12T15:45:00;3.83;;;2.70;;
40601;SDS011;26310;50.278;19.032;2023-02-12T15:50:24;6.10;;;3.47;;
40601;SDS011;26310;50.278;19.032;2023-02-12T15:55:31;8.60;;;3.87;;
40601;SDS011;26310;50.278;19.032;2023-02-12T16:00:41;5.93;;;3.60;;
40601;SDS011;26310;50.278;19.032;2023-02-12T16:05:46;4.63;;;3.07;;
40601;SDS011;26310;50.278;19.032;2023-02-12T16:10:51;5.70;;;3.63;;
40601;SDS011;26310;50.278;19.032;2023-02-12T16:21:19;7.23;;;5.43;;
40601;SDS011;26310;50.278;19.032;2023-02-12T16:26:25;10.33;;;6.37;;
40601;SDS011;26310;50.278;19.032;2023-02-12T16:31:28;20.17;;;7.93;;
40601;SDS011;26310;50.278;19.032;2023-02-12T16:36:33;21.27;;;8.93;;
40601;SDS011;26310;50.278;19.032;2023-02-12T16:41:50;11.37;;;7.03;;
40601;SDS011;26310;50.278;19.032;2023-02-12T16:46:55;11.30;;;6.90;;
40601;SDS011;26310;50.278;19.032;2023-02-12T16:52:26;14.60;;;8.40;;
40601;SDS011;26310;50.278;19.032;2023-02-12T16:57:40;16.37;;;7.73;;
40601;SDS011;26310;50.278;19.032;2023-02-12T17:02:43;13.70;;;7.83;;
40601;SDS011;26310;50.278;19.032;2023-02-12T17:07:48;11.23;;;6.93;;
40601;SDS011;26310;50.278;19.032;2023-02-12T17:12:51;11.83;;;8.33;;
40601;SDS011;26310;50.278;19.032;2023-02-12T17:17:54;16.20;;;8.50;;
40601;SDS011;26310;50.278;19.032;2023-02-12T17:22:57;22.03;;;13.03;;
40601;SDS011;26310;50.278;19.032;2023-02-12T17:28:00;18.30;;;10.73;;
40601;SDS011;26310;50.278;19.032;2023-02-12T17:33:04;18.83;;;9.07;;
40601;SDS011;26310;50.278;19.032;2023-02-12T17:38:06;21.07;;;10.83;;
40601;SDS011;26310;50.278;19.032;2023-02-12T17:43:10;19.17;;;10.90;;
40601;SDS011;26310;50.278;19.032;2023-02-12T17:48:14;21.97;;;10.80;;
40601;SDS011;26310;50.278;19.032;2023-02-12T17:53:18;25.50;;;11.93;;
40601;SDS011;26310;50.278;19.032;2023-02-12T17:58:21;12.80;;;8.87;;
40601;SDS011;26310;50.278;19.032;2023-02-12T18:03:24;19.97;;;10.53;;
40601;SDS011;26310;50.278;19.032;2023-02-12T18:08:27;20.70;;;9.40;;
40601;SDS011;26310;50.278;19.032;2023-02-12T18:13:30;12.97;;;8.27;;
40601;SDS011;26310;50.278;19.032;2023-02-12T18:18:34;19.80;;;10.70;;
40601;SDS011;26310;50.278;19.032;2023-02-12T18:23:37;22.83;;;11.93;;
40601;SDS011;26310;50.278;19.032;2023-02-12T18:28:41;22.63;;;13.07;;
40601;SDS011;26310;50.278;19.032;2023-02-12T18:33:44;19.27;;;10.93;;
40601;SDS011;26310;50.278;19.032;2023-02-12T18:38:48;32.53;;;12.63;;
40601;SDS011;26310;50.278;19.032;2023-02-12T18:43:51;28.40;;;13.83;;
40601;SDS011;26310;50.278;19.032;2023-02-12T18:48:55;30.13;;;14.83;;
40601;SDS011;26310;50.278;19.032;2023-02-12T18:53:59;30.03;;;15.00;;
40601;SDS011;26310;50.278;19.032;2023-02-12T18:59:06;30.00;;;14.63;;
40601;SDS011;26310;50.278;19.032;2023-02-12T19:04:11;27.77;;;15.20;;
40601;SDS011;26310;50.278;19.032;2023-02-12T19:09:17;29.63;;;15.93;;
40601;SDS011;26310;50.278;19.032;2023-02-12T19:14:22;36.73;;;16.33;;
40601;SDS011;26310;50.278;19.032;2023-02-12T19:19:26;26.83;;;14.80;;
40601;SDS011;26310;50.278;19.032;2023-02-12T19:24:30;33.37;;;16.67;;
40601;SDS011;26310;50.278;19.032;2023-02-12T19:29:47;35.33;;;18.20;;
40601;SDS011;26310;50.278;19.032;2023-02-12T19:34:50;32.87;;;16.77;;
40601;SDS011;26310;50.278;19.032;2023-02-12T19:39:53;39.33;;;19.37;;
40601;SDS011;26310;50.278;19.032;2023-02-12T19:44:56;35.00;;;18.97;;
40601;SDS011;26310;50.278;19.032;2023-02-12T19:49:59;34.03;;;16.73;;
40601;SDS011;26310;50.278;19.032;2023-02-12T19:55:02;32.97;;;17.67;;
40601;SDS011;26310;50.278;19.032;2023-02-12T20:00:05;37.93;;;17.80;;
40601;SDS011;26310;50.278;19.032;2023-02-12T20:05:09;31.40;;;18.33;;
40601;SDS011;26310;50.278;19.032;2023-02-12T20:10:12;40.47;;;17.97;;
40601;SDS011;26310;50.278;19.032;2023-02-12T20:15:18;32.53;;;18.97;;
40601;SDS011;26310;50.278;19.032;2023-02-12T20:20:22;33.83;;;14.97;;
40601;SDS011;26310;50.278;19.032;2023-02-12T20:25:25;35.20;;;18.23;;
40601;SDS011;26310;50.278;19.032;2023-02-12T20:30:28;39.37;;;19.57;;
40601;SDS011;26310;50.278;19.032;2023-02-12T20:35:31;29.97;;;16.37;;
40601;SDS011;26310;50.278;19.032;2023-02-12T20:40:35;29.03;;;15.30;;
40601;SDS011;26310;50.278;19.032;2023-02-12T20:45:39;30.83;;;14.93;;
40601;SDS011;26310;50.278;19.032;2023-02-12T20:50:41;27.03;;;15.03;;
40601;SDS011;26310;50.278;19.032;2023-02-12T20:55:44;36.80;;;17.20;;
40601;SDS011;26310;50.278;19.032;2023-02-12T21:00:47;38.10;;;19.37;;
40601;SDS011;26310;50.278;19.032;2023-02-12T21:05:50;37.63;;;19.07;;
40601;SDS011;26310;50.278;19.032;2023-02-12T21:11:03;37.10;;;20.03;;
40601;SDS011;26310;50.278;19.032;2023-02-12T21:21:22;28.77;;;16.53;;
40601;SDS011;26310;50.278;19.032;2023-02-12T21:26:28;26.90;;;14.40;;
40601;SDS011;26310;50.278;19.032;2023-02-12T21:31:36;23.13;;;14.57;;
40601;SDS011;26310;50.278;19.032;2023-02-12T21:36:40;29.87;;;16.07;;
40601;SDS011;26310;50.278;19.032;2023-02-12T21:41:45;24.97;;;15.03;;
40601;SDS011;26310;50.278;19.032;2023-02-12T21:46:48;28.67;;;15.70;;
40601;SDS011;26310;50.278;19.032;2023-02-12T21:51:52;28.70;;;14.80;;
40601;SDS011;26310;50.278;19.032;2023-02-12T21:56:58;34.13;;;17.73;;
40601;SDS011;26310;50.278;19.032;2023-02-12T22:02:01;32.67;;;18.17;;
40601;SDS011;26310;50.278;19.032;2023-02-12T22:07:04;36.80;;;17.43;;
40601;SDS011;26310;50.278;19.032;2023-02-12T22:12:07;27.77;;;17.70;;
40601;SDS011;26310;50.278;19.032;2023-02-12T22:17:10;28.30;;;15.30;;
40601;SDS011;26310;50.278;19.032;2023-02-12T22:22:12;29.60;;;15.03;;
40601;SDS011;26310;50.278;19.032;2023-02-12T22:27:15;38.10;;;17.37;;
40601;SDS011;26310;50.278;19.032;2023-02-12T22:32:18;31.80;;;16.50;;
40601;SDS011;26310;50.278;19.032;2023-02-12T22:37:21;33.03;;;14.73;;
40601;SDS011;26310;50.278;19.032;2023-02-12T22:42:24;31.47;;;14.70;;
40601;SDS011;26310;50.278;19.032;2023-02-12T22:47:27;23.97;;;14.50;;
40601;SDS011;26310;50.278;19.032;2023-02-12T22:52:32;25.33;;;13.87;;
40601;SDS011;26310;50.278;19.032;2023-02-12T22:57:35;29.60;;;15.50;;
40601;SDS011;26310;50.278;19.032;2023-02-12T23:02:39;32.80;;;16.63;;
40601;SDS011;26310;50.278;19.032;2023-02-12T23:07:42;31.60;;;15.67;;
40601;SDS011;26310;50.278;19.032;2023-02-12T23:12:45;36.43;;;15.93;;
40601;SDS011;26310;50.278;19.032;2023-02-12T23:17:47;24.63;;;14.97;;
40601;SDS011;26310;50.278;19.032;2023-02-12T23:22:51;28.57;;;14.87;;
40601;SDS011;26310;50.278;19.032;2023-02-12T23:27:54;31.40;;;15.53;;
40601;SDS011;26310;50.278;19.032;2023-02-12T23:32:57;29.63;;;12.43;;
40601;SDS011;26310;50.278;19.032;2023-02-12T23:38:00;29.00;;;14.43;;
40601;SDS011;26310;50.278;19.032;2023-02-12T23:43:05;24.80;;;12.70;;
40601;SDS011;26310;50.278;19.032;2023-02-12T23:48:08;27.07;;;13.20;;
40601;SDS011;26310;50.278;19.032;2023-02-12T23:53:11;23.43;;;12.13;;
40601;SDS011;26310;50.278;19.032;2023-02-12T23:58:14;34.43;;;15.30;;
